sensor_id;sensor_type;location;lat;lon;timestamp;pressure;altitude;pressure_sealevel;temperature
51693;BMP280;37777;53.066;21.638;2023-09-30T00:02:53;100698.75;;;18.11
51693;BMP280;37777;53.066;21.638;2023-09-30T00:09:54;100688.19;;;18.05
51693;BMP280;37777;53.066;21.638;2023-09-30T00:16:56;100689.38;;;18.04
51693;BMP280;37777;53.066;21.638;2023-09-30T00:23:57;100687.81;;;18.07
51693;BMP280;37777;53.066;21.638;2023-09-30T00:30:59;100676.09;;;18.06
51693;BMP280;37777;53.066;21.638;2023-09-30T00:38:01;100681.16;;;18.01
51693;BMP280;37777;53.066;21.638;2023-09-30T00:45:03;100686.22;;;17.99
51693;BMP280;37777;53.066;21.638;2023-09-30T00:52:06;100675.31;;;18.02
51693;BMP280;37777;53.066;21.638;2023-09-30T00:59:07;100665.50;;;18.01
51693;BMP280;37777;53.066;21.638;2023-09-30T01:06:09;100678.00;;;17.99
51693;BMP280;37777;53.066;21.638;2023-09-30T01:13:11;100668.25;;;17.94
51693;BMP280;37777;53.066;21.638;2023-09-30T01:20:14;100663.53;;;17.95
51693;BMP280;37777;53.066;21.638;2023-09-30T01:27:17;100665.50;;;17.94
51693;BMP280;37777;53.066;21.638;2023-09-30T01:34:21;100668.63;;;17.89
51693;BMP280;37777;53.066;21.638;2023-09-30T01:41:22;100658.88;;;17.92
51693;BMP280;37777;53.066;21.638;2023-09-30T01:48:23;100654.56;;;17.91
51693;BMP280;37777;53.066;21.638;2023-09-30T01:55:25;100652.59;;;17.91
51693;BMP280;37777;53.066;21.638;2023-09-30T02:02:26;100643.22;;;17.92
51693;BMP280;37777;53.066;21.638;2023-09-30T02:09:28;100645.56;;;17.90
51693;BMP280;37777;53.066;21.638;2023-09-30T02:16:29;100646.34;;;17.91
51693;BMP280;37777;53.066;21.638;2023-09-30T02:23:31;100633.03;;;17.85
51693;BMP280;37777;53.066;21.638;2023-09-30T02:30:32;100653.38;;;17.84
51693;BMP280;37777;53.066;21.638;2023-09-30T02:37:34;100633.47;;;17.77
51693;BMP280;37777;53.066;21.638;2023-09-30T02:44:38;100628.34;;;17.79
51693;BMP280;37777;53.066;21.638;2023-09-30T02:51:40;100619.34;;;17.78
51693;BMP280;37777;53.066;21.638;2023-09-30T02:58:41;100609.56;;;17.74
51693;BMP280;37777;53.066;21.638;2023-09-30T03:05:43;100627.94;;;17.69
51693;BMP280;37777;53.066;21.638;2023-09-30T03:12:47;100605.28;;;17.73
51693;BMP280;37777;53.066;21.638;2023-09-30T03:19:49;100610.75;;;17.73
51693;BMP280;37777;53.066;21.638;2023-09-30T03:26:51;100603.31;;;17.69
51693;BMP280;37777;53.066;21.638;2023-09-30T03:33:53;100597.84;;;17.73
51693;BMP280;37777;53.066;21.638;2023-09-30T03:40:59;100595.50;;;17.75
51693;BMP280;37777;53.066;21.638;2023-09-30T03:48:01;100600.97;;;17.75
51693;BMP280;37777;53.066;21.638;2023-09-30T03:55:03;100590.81;;;17.68
51693;BMP280;37777;53.066;21.638;2023-09-30T04:02:06;100597.06;;;17.65
51693;BMP280;37777;53.066;21.638;2023-09-30T04:09:08;100597.84;;;17.59
51693;BMP280;37777;53.066;21.638;2023-09-30T04:16:12;100598.63;;;17.59
51693;BMP280;37777;53.066;21.638;2023-09-30T04:23:14;100591.59;;;17.58
51693;BMP280;37777;53.066;21.638;2023-09-30T04:30:17;100588.09;;;17.58
51693;BMP280;37777;53.066;21.638;2023-09-30T04:37:19;100586.91;;;17.59
51693;BMP280;37777;53.066;21.638;2023-09-30T04:44:21;100584.59;;;17.57
51693;BMP280;37777;53.066;21.638;2023-09-30T04:51:24;100576.75;;;17.56
51693;BMP280;37777;53.066;21.638;2023-09-30T04:58:27;100577.13;;;17.50
51693;BMP280;37777;53.066;21.638;2023-09-30T05:05:31;100595.47;;;17.43
51693;BMP280;37777;53.066;21.638;2023-09-30T05:12:32;100595.09;;;17.44
51693;BMP280;37777;53.066;21.638;2023-09-30T05:19:34;100591.63;;;17.47
51693;BMP280;37777;53.066;21.638;2023-09-30T05:26:38;100595.91;;;17.45
51693;BMP280;37777;53.066;21.638;2023-09-30T05:33:39;100616.59;;;17.46
51693;BMP280;37777;53.066;21.638;2023-09-30T05:40:42;100606.41;;;17.50
51693;BMP280;37777;53.066;21.638;2023-09-30T05:47:44;100614.63;;;17.54
51693;BMP280;37777;53.066;21.638;2023-09-30T05:54:52;100609.56;;;17.59
51693;BMP280;37777;53.066;21.638;2023-09-30T06:01:53;100603.34;;;17.62
51693;BMP280;37777;53.066;21.638;2023-09-30T06:08:56;100607.22;;;17.68
51693;BMP280;37777;53.066;21.638;2023-09-30T06:15:59;100620.53;;;17.66
51693;BMP280;37777;53.066;21.638;2023-09-30T06:23:01;100618.97;;;17.65
51693;BMP280;37777;53.066;21.638;2023-09-30T06:30:03;100624.03;;;17.67
51693;BMP280;37777;53.066;21.638;2023-09-30T06:37:06;100635.38;;;17.69
51693;BMP280;37777;53.066;21.638;2023-09-30T06:44:07;100652.56;;;17.69
51693;BMP280;37777;53.066;21.638;2023-09-30T06:51:13;100660.00;;;17.73
51693;BMP280;37777;53.066;21.638;2023-09-30T06:58:17;100655.69;;;17.75
51693;BMP280;37777;53.066;21.638;2023-09-30T07:05:22;100669.00;;;17.84
51693;BMP280;37777;53.066;21.638;2023-09-30T07:12:24;100664.31;;;17.84
51693;BMP280;37777;53.066;21.638;2023-09-30T07:19:25;100671.38;;;17.85
51693;BMP280;37777;53.066;21.638;2023-09-30T07:26:27;100685.47;;;17.87
51693;BMP280;37777;53.066;21.638;2023-09-30T07:33:29;100679.19;;;17.91
51693;BMP280;37777;53.066;21.638;2023-09-30T07:40:31;100682.72;;;17.95
51693;BMP280;37777;53.066;21.638;2023-09-30T07:47:32;100691.72;;;18.02
51693;BMP280;37777;53.066;21.638;2023-09-30T07:54:35;100696.41;;;18.05
51693;BMP280;37777;53.066;21.638;2023-09-30T08:01:37;100703.47;;;18.06
51693;BMP280;37777;53.066;21.638;2023-09-30T08:08:39;100708.53;;;18.04
51693;BMP280;37777;53.066;21.638;2023-09-30T08:15:40;100718.28;;;17.95
51693;BMP280;37777;53.066;21.638;2023-09-30T08:22:42;100734.69;;;17.77
51693;BMP280;37777;53.066;21.638;2023-09-30T08:29:43;100737.78;;;17.68
51693;BMP280;37777;53.066;21.638;2023-09-30T08:36:45;100734.28;;;17.67
51693;BMP280;37777;53.066;21.638;2023-09-30T08:43:47;100741.72;;;17.70
51693;BMP280;37777;53.066;21.638;2023-09-30T08:50:48;100735.50;;;17.81
51693;BMP280;37777;53.066;21.638;2023-09-30T08:57:52;100728.44;;;17.87
51693;BMP280;37777;53.066;21.638;2023-09-30T09:04:53;100740.19;;;17.95
51693;BMP280;37777;53.066;21.638;2023-09-30T09:11:55;100749.56;;;17.90
51693;BMP280;37777;53.066;21.638;2023-09-30T09:18:57;100748.78;;;17.86
51693;BMP280;37777;53.066;21.638;2023-09-30T09:25:59;100760.91;;;17.81
51693;BMP280;37777;53.066;21.638;2023-09-30T09:33:05;100774.94;;;17.73
51693;BMP280;37777;53.066;21.638;2023-09-30T09:40:07;100780.81;;;17.75
51693;BMP280;37777;53.066;21.638;2023-09-30T09:47:09;100793.66;;;17.60
51693;BMP280;37777;53.066;21.638;2023-09-30T09:54:11;100791.22;;;17.40
51693;BMP280;37777;53.066;21.638;2023-09-30T10:01:13;100815.00;;;17.32
51693;BMP280;37777;53.066;21.638;2023-09-30T10:08:16;100813.97;;;17.52
51693;BMP280;37777;53.066;21.638;2023-09-30T10:22:27;100832.31;;;17.55
51693;BMP280;37777;53.066;21.638;2023-09-30T10:29:39;100820.59;;;17.54
51693;BMP280;37777;53.066;21.638;2023-09-30T10:36:42;100827.69;;;17.62
51693;BMP280;37777;53.066;21.638;2023-09-30T10:43:44;100848.75;;;17.58
51693;BMP280;37777;53.066;21.638;2023-09-30T10:50:52;100853.44;;;17.58
51693;BMP280;37777;53.066;21.638;2023-09-30T10:57:55;100872.91;;;17.42
51693;BMP280;37777;53.066;21.638;2023-09-30T11:04:57;100871.34;;;17.44
51693;BMP280;37777;53.066;21.638;2023-09-30T11:11:58;100877.56;;;17.38
51693;BMP280;37777;53.066;21.638;2023-09-30T11:19:00;100882.28;;;17.44
51693;BMP280;37777;53.066;21.638;2023-09-30T11:26:01;100896.31;;;17.43
51693;BMP280;37777;53.066;21.638;2023-09-30T11:33:03;100903.69;;;17.31
51693;BMP280;37777;53.066;21.638;2023-09-30T11:40:10;100932.00;;;17.09
51693;BMP280;37777;53.066;21.638;2023-09-30T11:47:12;100917.53;;;17.05
51693;BMP280;37777;53.066;21.638;2023-09-30T11:54:14;100917.88;;;17.00
51693;BMP280;37777;53.066;21.638;2023-09-30T12:01:16;100912.88;;;17.05
51693;BMP280;37777;53.066;21.638;2023-09-30T12:08:17;100912.63;;;17.28
51693;BMP280;37777;53.066;21.638;2023-09-30T12:15:20;100922.50;;;17.40
51693;BMP280;37777;53.066;21.638;2023-09-30T12:22:23;100934.75;;;17.57
51693;BMP280;37777;53.066;21.638;2023-09-30T12:29:25;100928.31;;;18.01
51693;BMP280;37777;53.066;21.638;2023-09-30T12:36:26;100917.88;;;18.46
51693;BMP280;37777;53.066;21.638;2023-09-30T12:43:28;100940.69;;;18.87
51693;BMP280;37777;53.066;21.638;2023-09-30T12:50:29;100924.59;;;18.85
51693;BMP280;37777;53.066;21.638;2023-09-30T12:57:31;100930.47;;;18.55
51693;BMP280;37777;53.066;21.638;2023-09-30T13:04:33;100934.69;;;18.27
51693;BMP280;37777;53.066;21.638;2023-09-30T13:11:34;100939.34;;;18.23
51693;BMP280;37777;53.066;21.638;2023-09-30T13:18:38;100953.00;;;18.12
51693;BMP280;37777;53.066;21.638;2023-09-30T13:25:39;100946.34;;;18.09
51693;BMP280;37777;53.066;21.638;2023-09-30T13:32:40;100945.97;;;18.18
51693;BMP280;37777;53.066;21.638;2023-09-30T13:39:42;100944.16;;;18.58
51693;BMP280;37777;53.066;21.638;2023-09-30T13:46:44;100946.50;;;18.60
51693;BMP280;37777;53.066;21.638;2023-09-30T13:53:46;100943.00;;;18.92
51693;BMP280;37777;53.066;21.638;2023-09-30T14:00:48;100948.50;;;18.99
51693;BMP280;37777;53.066;21.638;2023-09-30T14:07:49;100943.03;;;18.77
51693;BMP280;37777;53.066;21.638;2023-09-30T14:14:52;100947.63;;;18.48
51693;BMP280;37777;53.066;21.638;2023-09-30T14:21:53;100948.41;;;18.27
51693;BMP280;37777;53.066;21.638;2023-09-30T14:28:55;100945.19;;;18.14
51693;BMP280;37777;53.066;21.638;2023-09-30T14:35:57;100956.16;;;18.18
51693;BMP280;37777;53.066;21.638;2023-09-30T14:43:00;100949.50;;;18.19
51693;BMP280;37777;53.066;21.638;2023-09-30T14:50:08;100952.22;;;18.12
51693;BMP280;37777;53.066;21.638;2023-09-30T14:57:09;100953.34;;;18.03
51693;BMP280;37777;53.066;21.638;2023-09-30T15:04:11;100952.97;;;18.01
51693;BMP280;37777;53.066;21.638;2023-09-30T15:11:13;100955.28;;;18.03
51693;BMP280;37777;53.066;21.638;2023-09-30T15:18:18;100968.63;;;18.08
51693;BMP280;37777;53.066;21.638;2023-09-30T15:25:19;100970.97;;;18.02
51693;BMP280;37777;53.066;21.638;2023-09-30T15:32:22;100970.84;;;17.84
51693;BMP280;37777;53.066;21.638;2023-09-30T15:39:24;100977.88;;;17.82
51693;BMP280;37777;53.066;21.638;2023-09-30T15:46:26;100983.31;;;17.75
51693;BMP280;37777;53.066;21.638;2023-09-30T15:53:27;100992.22;;;17.64
51693;BMP280;37777;53.066;21.638;2023-09-30T16:00:39;100998.72;;;17.42
51693;BMP280;37777;53.066;21.638;2023-09-30T16:07:40;100997.81;;;17.27
51693;BMP280;37777;53.066;21.638;2023-09-30T16:14:42;101015.00;;;17.27
51693;BMP280;37777;53.066;21.638;2023-09-30T16:21:43;101021.19;;;17.21
51693;BMP280;37777;53.066;21.638;2023-09-30T16:28:45;101027.91;;;16.93
51693;BMP280;37777;53.066;21.638;2023-09-30T16:35:46;101041.78;;;16.77
51693;BMP280;37777;53.066;21.638;2023-09-30T16:42:52;101045.50;;;16.58
51693;BMP280;37777;53.066;21.638;2023-09-30T16:49:53;101055.44;;;16.43
51693;BMP280;37777;53.066;21.638;2023-09-30T16:56:55;101049.78;;;16.29
51693;BMP280;37777;53.066;21.638;2023-09-30T17:03:59;101060.50;;;16.14
51693;BMP280;37777;53.066;21.638;2023-09-30T17:11:01;101054.31;;;15.94
51693;BMP280;37777;53.066;21.638;2023-09-30T17:18:02;101067.59;;;15.69
51693;BMP280;37777;53.066;21.638;2023-09-30T17:25:05;101063.56;;;15.63
51693;BMP280;37777;53.066;21.638;2023-09-30T17:32:07;101055.19;;;15.52
51693;BMP280;37777;53.066;21.638;2023-09-30T17:39:08;101063.78;;;15.31
51693;BMP280;37777;53.066;21.638;2023-09-30T17:46:10;101073.81;;;15.27
51693;BMP280;37777;53.066;21.638;2023-09-30T17:53:12;101073.34;;;15.21
51693;BMP280;37777;53.066;21.638;2023-09-30T18:00:14;101075.06;;;15.10
51693;BMP280;37777;53.066;21.638;2023-09-30T18:07:15;101070.22;;;15.00
51693;BMP280;37777;53.066;21.638;2023-09-30T18:14:17;101068.25;;;14.81
51693;BMP280;37777;53.066;21.638;2023-09-30T18:21:19;101071.25;;;14.76
51693;BMP280;37777;53.066;21.638;2023-09-30T18:28:21;101077.41;;;14.73
51693;BMP280;37777;53.066;21.638;2023-09-30T18:35:23;101083.13;;;14.67
51693;BMP280;37777;53.066;21.638;2023-09-30T18:42:24;101084.53;;;14.42
51693;BMP280;37777;53.066;21.638;2023-09-30T18:49:26;101083.81;;;14.45
51693;BMP280;37777;53.066;21.638;2023-09-30T18:56:28;101085.81;;;14.32
51693;BMP280;37777;53.066;21.638;2023-09-30T19:03:29;101084.44;;;14.38
51693;BMP280;37777;53.066;21.638;2023-09-30T19:10:31;101083.66;;;14.38
51693;BMP280;37777;53.066;21.638;2023-09-30T19:17:34;101099.56;;;14.36
51693;BMP280;37777;53.066;21.638;2023-09-30T19:24:36;101096.41;;;14.18
51693;BMP280;37777;53.066;21.638;2023-09-30T19:31:40;101113.97;;;14.04
51693;BMP280;37777;53.066;21.638;2023-09-30T19:38:42;101127.59;;;14.04
51693;BMP280;37777;53.066;21.638;2023-09-30T19:45:43;101124.28;;;13.99
51693;BMP280;37777;53.066;21.638;2023-09-30T19:52:45;101130.59;;;13.87
51693;BMP280;37777;53.066;21.638;2023-09-30T19:59:46;101126.13;;;13.95
51693;BMP280;37777;53.066;21.638;2023-09-30T20:06:47;101130.53;;;13.83
51693;BMP280;37777;53.066;21.638;2023-09-30T20:13:54;101141.72;;;13.82
51693;BMP280;37777;53.066;21.638;2023-09-30T20:20:56;101138.22;;;13.81
51693;BMP280;37777;53.066;21.638;2023-09-30T20:27:57;101139.16;;;13.73
51693;BMP280;37777;53.066;21.638;2023-09-30T20:35:07;101143.28;;;13.67
51693;BMP280;37777;53.066;21.638;2023-09-30T20:42:10;101130.13;;;13.53
51693;BMP280;37777;53.066;21.638;2023-09-30T20:49:12;101138.06;;;13.46
51693;BMP280;37777;53.066;21.638;2023-09-30T20:56:14;101136.28;;;13.38
51693;BMP280;37777;53.066;21.638;2023-09-30T21:03:15;101146.59;;;13.32
51693;BMP280;37777;53.066;21.638;2023-09-30T21:10:18;101151.13;;;13.28
51693;BMP280;37777;53.066;21.638;2023-09-30T21:17:19;101156.00;;;13.22
51693;BMP280;37777;53.066;21.638;2023-09-30T21:24:22;101161.34;;;13.18
51693;BMP280;37777;53.066;21.638;2023-09-30T21:31:23;101164.06;;;13.18
51693;BMP280;37777;53.066;21.638;2023-09-30T21:38:26;101158.66;;;13.06
51693;BMP280;37777;53.066;21.638;2023-09-30T21:45:27;101164.44;;;12.92
51693;BMP280;37777;53.066;21.638;2023-09-30T21:52:28;101155.53;;;12.92
51693;BMP280;37777;53.066;21.638;2023-09-30T21:59:30;101164.09;;;12.81
51693;BMP280;37777;53.066;21.638;2023-09-30T22:06:31;101157.31;;;12.88
51693;BMP280;37777;53.066;21.638;2023-09-30T22:13:33;101158.34;;;12.83
51693;BMP280;37777;53.066;21.638;2023-09-30T22:20:36;101148.84;;;12.77
51693;BMP280;37777;53.066;21.638;2023-09-30T22:27:39;101145.31;;;12.89
51693;BMP280;37777;53.066;21.638;2023-09-30T22:34:42;101142.16;;;12.74
51693;BMP280;37777;53.066;21.638;2023-09-30T22:41:44;101156.75;;;12.70
51693;BMP280;37777;53.066;21.638;2023-09-30T22:48:45;101149.53;;;12.61
51693;BMP280;37777;53.066;21.638;2023-09-30T22:55:47;101151.53;;;12.52
51693;BMP280;37777;53.066;21.638;2023-09-30T23:02:49;101146.44;;;12.38
51693;BMP280;37777;53.066;21.638;2023-09-30T23:09:51;101148.72;;;12.36
51693;BMP280;37777;53.066;21.638;2023-09-30T23:16:52;101162.13;;;12.20
51693;BMP280;37777;53.066;21.638;2023-09-30T23:23:54;101154.19;;;12.15
51693;BMP280;37777;53.066;21.638;2023-09-30T23:30:57;101168.75;;;12.11
51693;BMP280;37777;53.066;21.638;2023-09-30T23:37:58;101158.38;;;12.00
51693;BMP280;37777;53.066;21.638;2023-09-30T23:45:05;101164.63;;;11.92
51693;BMP280;37777;53.066;21.638;2023-09-30T23:52:13;101165.63;;;11.87
51693;BMP280;37777;53.066;21.638;2023-09-30T23:59:16;101161.41;;;11.78
